Roosevelt, Louisiana
Current Conditions -  °F | °C
As of 3:53 PM on Saturday 25 Oct 2014 (Local Time) from KTVR Reporting Station
Clear Clear  
Wind Chill: 81°   Ceiling: Unl
Heat Index: 82°   Visibility: 10mi
Dew Point: 60°   Wind: 5mph
Humidity: 49%   Direction: NA
Pressure: 30.06"   Gusts: NA
Location:  32.5752°N, 91.2825°W
Report Text: KTVR 252053Z AUTO VRB04KT 10SM CLR 27/16 A3006 RMK AO2 SLP187 T02720156 56024
Loading
Personal Weather Stations






























Interactive Weather Map
Tropical Storm Tracking
New forecast layout! Learn more

10-Day Weather Forecast

Advertisements
Track Severe Weather on mobile